createdAt,value
2023-04-02T00:00:13.850Z,9.48
2023-04-02T00:02:55.392Z,9.50
2023-04-02T00:05:47.187Z,9.49
2023-04-02T00:08:28.278Z,9.48
2023-04-02T00:10:58.380Z,9.44
2023-04-02T00:13:32.778Z,9.43
2023-04-02T00:16:02.051Z,9.43
2023-04-02T00:18:31.900Z,9.42
2023-04-02T00:21:09.195Z,9.38
2023-04-02T00:23:40.177Z,9.46
2023-04-02T00:26:21.789Z,9.35
2023-04-02T00:28:49.918Z,9.38
2023-04-02T00:31:20.239Z,9.43
2023-04-02T00:33:49.297Z,9.43
2023-04-02T00:36:19.135Z,9.43
2023-04-02T00:38:50.573Z,9.43
2023-04-02T00:41:24.281Z,9.36
2023-04-02T00:43:58.514Z,9.43
2023-04-02T00:46:30.839Z,9.36
2023-04-02T00:49:03.474Z,9.39
2023-04-02T00:51:36.391Z,9.35
2023-04-02T00:54:10.669Z,9.37
2023-04-02T00:56:42.485Z,9.25
2023-04-02T00:59:20.291Z,9.29
2023-04-02T01:01:53.458Z,9.30
2023-04-02T01:04:30.886Z,9.25
2023-04-02T01:06:59.567Z,9.25
2023-04-02T01:09:48.832Z,9.22
2023-04-02T01:12:38.012Z,9.26
2023-04-02T01:15:13.396Z,9.26
2023-04-02T01:17:58.693Z,9.24
2023-04-02T01:20:50.918Z,9.15
2023-04-02T01:23:26.758Z,9.29
2023-04-02T01:26:03.500Z,9.27
2023-04-02T01:28:36.618Z,9.26
2023-04-02T01:31:06.078Z,9.29
2023-04-02T01:33:35.594Z,9.28
2023-04-02T01:36:09.730Z,9.28
2023-04-02T01:38:41.761Z,9.25
2023-04-02T01:41:18.945Z,9.23
2023-04-02T01:43:51.832Z,9.25
2023-04-02T01:46:29.197Z,9.20
2023-04-02T01:49:00.168Z,9.18
2023-04-02T01:51:30.349Z,9.11
2023-04-02T01:54:00.760Z,9.18
2023-04-02T01:56:30.153Z,9.20
2023-04-02T01:58:59.165Z,9.19
2023-04-02T02:01:35.323Z,9.20
2023-04-02T02:04:04.189Z,9.14
2023-04-02T02:06:31.906Z,9.19
2023-04-02T02:09:04.664Z,9.15
2023-04-02T02:11:33.936Z,9.14
2023-04-02T02:14:06.266Z,9.19
2023-04-02T02:16:41.417Z,9.07
2023-04-02T02:19:20.329Z,9.10
2023-04-02T02:21:51.796Z,9.13
2023-04-02T02:24:23.780Z,9.17
2023-04-02T02:27:08.771Z,9.14
2023-04-02T02:29:40.567Z,9.15
2023-04-02T02:32:11.828Z,9.10
2023-04-02T02:34:44.126Z,9.01
2023-04-02T02:37:16.396Z,9.07
2023-04-02T02:39:46.621Z,9.08
2023-04-02T02:42:18.454Z,9.01
2023-04-02T02:44:47.800Z,8.99
2023-04-02T02:47:20.030Z,8.93
2023-04-02T02:49:51.378Z,8.88
2023-04-02T02:52:20.876Z,8.88
2023-04-02T02:54:52.089Z,8.80
2023-04-02T02:57:23.105Z,8.80
2023-04-02T02:59:53.006Z,8.73
2023-04-02T03:02:22.970Z,8.72
2023-04-02T03:04:53.769Z,8.71
2023-04-02T03:07:24.952Z,8.69
2023-04-02T03:09:59.589Z,8.66
2023-04-02T03:12:42.105Z,8.66
2023-04-02T03:15:19.186Z,8.65
2023-04-02T03:17:53.613Z,8.66
2023-04-02T03:20:27.805Z,8.66
2023-04-02T03:23:00.100Z,8.67
2023-04-02T03:25:36.085Z,8.65
2023-04-02T03:28:07.806Z,8.65
2023-04-02T03:30:42.394Z,8.63
2023-04-02T03:33:17.493Z,8.63
2023-04-02T03:35:52.813Z,8.66
2023-04-02T03:38:25.167Z,8.59
2023-04-02T03:41:01.533Z,8.64
2023-04-02T03:43:34.646Z,8.63
2023-04-02T03:46:16.229Z,8.65
2023-04-02T03:48:46.146Z,8.66
2023-04-02T03:51:20.507Z,8.67
2023-04-02T03:53:49.399Z,8.63
2023-04-02T03:56:26.088Z,8.66
2023-04-02T03:59:03.205Z,8.67
2023-04-02T04:01:37.620Z,8.68
2023-04-02T04:04:12.531Z,8.70
2023-04-02T04:06:43.362Z,8.70
2023-04-02T04:09:18.287Z,8.74
2023-04-02T04:11:48.868Z,8.74
2023-04-02T04:14:21.412Z,8.77
2023-04-02T04:16:54.016Z,8.77
2023-04-02T04:19:28.563Z,8.78
2023-04-02T04:22:11.074Z,8.79
2023-04-02T04:24:39.169Z,8.77
2023-04-02T04:27:14.029Z,8.82
2023-04-02T04:29:49.380Z,8.88
2023-04-02T04:32:24.420Z,8.90
2023-04-02T04:34:58.482Z,8.87
2023-04-02T04:37:31.979Z,9.00
2023-04-02T04:40:03.621Z,9.03
2023-04-02T04:42:36.331Z,9.01
2023-04-02T04:45:16.884Z,8.94
2023-04-02T04:47:51.844Z,9.07
2023-04-02T04:50:30.289Z,9.03
2023-04-02T04:53:05.669Z,9.06
2023-04-02T04:55:38.658Z,9.05
2023-04-02T04:58:18.874Z,9.13
2023-04-02T05:00:56.396Z,9.13
2023-04-02T05:03:39.666Z,9.05
2023-04-02T05:06:15.843Z,9.17
2023-04-02T05:08:47.636Z,9.15
2023-04-02T05:11:23.669Z,9.15
2023-04-02T05:13:56.934Z,9.10
2023-04-02T05:16:30.323Z,9.02
2023-04-02T05:19:07.910Z,9.02
2023-04-02T05:21:42.434Z,9.05
2023-04-02T05:24:36.513Z,9.07
2023-04-02T05:27:15.657Z,9.03
2023-04-02T05:29:50.474Z,9.07
2023-04-02T05:32:23.115Z,9.06
2023-04-02T05:34:54.777Z,9.08
2023-04-02T05:37:30.441Z,9.07
2023-04-02T05:40:00.663Z,9.06
2023-04-02T05:42:31.785Z,9.04
2023-04-02T05:45:09.605Z,9.02
2023-04-02T05:47:43.740Z,9.04
2023-04-02T05:50:24.555Z,9.00
2023-04-02T05:52:58.900Z,9.04
2023-04-02T05:55:37.192Z,8.97
2023-04-02T05:58:34.001Z,8.99
2023-04-02T06:01:05.814Z,9.06
2023-04-02T06:03:44.247Z,9.05
2023-04-02T06:06:18.871Z,9.04
2023-04-02T06:08:56.368Z,9.07
2023-04-02T06:11:28.021Z,9.06
2023-04-02T06:13:55.907Z,9.00
2023-04-02T06:16:28.175Z,8.97
2023-04-02T06:19:01.321Z,9.07
2023-04-02T06:21:29.545Z,9.09
2023-04-02T06:24:03.499Z,9.11
2023-04-02T06:26:35.149Z,9.01
2023-04-02T06:29:08.703Z,9.04
2023-04-02T06:31:44.971Z,9.08
2023-04-02T06:34:17.386Z,9.05
2023-04-02T06:36:47.766Z,9.08
2023-04-02T06:39:19.899Z,9.09
2023-04-02T06:41:53.091Z,9.00
2023-04-02T06:44:24.444Z,9.08
2023-04-02T06:46:55.607Z,9.12
2023-04-02T06:49:29.575Z,9.08
2023-04-02T06:52:00.437Z,9.14
2023-04-02T06:54:30.004Z,9.20
2023-04-02T06:56:57.700Z,9.19
2023-04-02T06:59:26.262Z,9.12
2023-04-02T07:01:58.932Z,9.18
2023-04-02T07:04:27.362Z,9.25
2023-04-02T07:06:55.587Z,9.18
2023-04-02T07:09:23.201Z,9.26
2023-04-02T07:11:52.358Z,9.18
2023-04-02T07:14:20.317Z,9.29
2023-04-02T07:16:48.008Z,9.33
2023-04-02T07:19:19.294Z,9.32
2023-04-02T07:21:49.215Z,9.34
2023-04-02T07:24:16.849Z,9.33
2023-04-02T07:26:44.626Z,9.44
2023-04-02T07:29:16.726Z,9.47
2023-04-02T07:31:45.018Z,9.52
2023-04-02T07:34:12.691Z,9.52
2023-04-02T07:36:40.462Z,9.50
2023-04-02T07:39:08.381Z,9.57
2023-04-02T07:41:51.328Z,9.51
2023-04-02T07:44:20.523Z,9.48
2023-04-02T07:46:48.334Z,9.55
2023-04-02T07:49:18.448Z,9.40
2023-04-02T07:51:46.173Z,9.53
2023-04-02T07:54:13.913Z,9.45
2023-04-02T07:56:41.492Z,9.53
2023-04-02T07:59:09.677Z,9.47
2023-04-02T08:01:39.427Z,9.45
2023-04-02T08:04:17.797Z,9.50
2023-04-02T08:06:47.153Z,9.45
2023-04-02T08:09:15.788Z,9.55
2023-04-02T08:11:44.132Z,9.55
2023-04-02T08:14:12.374Z,9.59
2023-04-02T08:16:52.108Z,9.62
2023-04-02T08:19:24.125Z,9.70
2023-04-02T08:21:51.918Z,9.65
2023-04-02T08:24:19.720Z,9.59
2023-04-02T08:26:48.986Z,9.56
2023-04-02T08:29:16.707Z,9.61
2023-04-02T08:31:45.272Z,9.61
2023-04-02T08:34:14.491Z,9.57
2023-04-02T08:36:44.554Z,9.57
2023-04-02T08:39:12.517Z,9.60
2023-04-02T08:41:47.306Z,9.55
2023-04-02T08:44:38.701Z,9.52
2023-04-02T08:47:08.156Z,9.37
2023-04-02T08:49:43.166Z,9.44
2023-04-02T08:52:21.604Z,9.46
2023-04-02T08:54:49.672Z,9.46
2023-04-02T08:57:27.512Z,9.46
2023-04-02T09:00:01.742Z,9.49
2023-04-02T09:02:37.986Z,9.48
2023-04-02T09:05:17.179Z,9.52
2023-04-02T09:07:47.382Z,9.56
2023-04-02T09:10:16.734Z,9.57
2023-04-02T09:12:52.690Z,9.50
2023-04-02T09:15:28.738Z,9.58
2023-04-02T09:18:00.438Z,9.57
2023-04-02T09:20:33.516Z,9.49
2023-04-02T09:23:01.732Z,9.58
2023-04-02T09:25:31.092Z,9.59
2023-04-02T09:28:04.925Z,9.53
2023-04-02T09:30:49.465Z,9.55
2023-04-02T09:33:17.177Z,9.61
2023-04-02T09:35:56.925Z,9.68
2023-04-02T09:38:26.674Z,9.65
2023-04-02T09:40:59.753Z,9.60
2023-04-02T09:43:29.890Z,9.71
2023-04-02T09:46:02.962Z,9.66
2023-04-02T09:48:34.226Z,9.76
2023-04-02T09:51:23.080Z,9.79
2023-04-02T09:54:06.352Z,9.83
2023-04-02T09:56:36.803Z,9.90
2023-04-02T09:59:06.603Z,9.82
2023-04-02T10:01:36.855Z,9.88
2023-04-02T10:04:06.748Z,9.95
2023-04-02T10:06:35.785Z,10.00
2023-04-02T10:09:25.896Z,10.15
2023-04-02T10:11:54.702Z,10.22
2023-04-02T10:14:27.878Z,10.45
2023-04-02T10:16:58.922Z,10.47
2023-04-02T10:19:31.329Z,10.45
2023-04-02T10:22:06.653Z,10.56
2023-04-02T10:24:34.757Z,10.59
2023-04-02T10:27:11.445Z,10.65
2023-04-02T10:30:09.664Z,10.67
2023-04-02T10:32:44.540Z,10.73
2023-04-02T10:35:21.525Z,10.61
2023-04-02T10:38:09.481Z,10.67
2023-04-02T10:40:41.986Z,10.67
2023-04-02T10:43:48.612Z,10.64
2023-04-02T10:46:25.097Z,10.73
2023-04-02T10:49:03.373Z,10.69
2023-04-02T10:51:40.521Z,10.75
2023-04-02T10:54:25.638Z,10.79
2023-04-02T10:56:56.644Z,10.93
2023-04-02T10:59:28.820Z,10.93
2023-04-02T11:01:59.436Z,10.90
2023-04-02T11:04:31.176Z,11.02
2023-04-02T11:07:13.840Z,10.89
2023-04-02T11:09:50.192Z,10.80
2023-04-02T11:12:23.167Z,10.87
2023-04-02T11:14:55.750Z,10.91
2023-04-02T11:17:24.823Z,10.91
2023-04-02T11:19:52.490Z,10.92
2023-04-02T11:22:22.563Z,10.96
2023-04-02T11:24:53.331Z,10.91
2023-04-02T11:27:25.339Z,10.82
2023-04-02T11:30:05.345Z,10.77
2023-04-02T11:32:38.457Z,10.73
2023-04-02T11:35:36.495Z,10.75
2023-04-02T11:38:42.461Z,10.88
2023-04-02T11:41:11.897Z,10.88
2023-04-02T11:43:51.157Z,10.96
2023-04-02T11:46:43.818Z,11.04
2023-04-02T11:49:35.292Z,11.19
2023-04-02T11:52:11.967Z,11.07
2023-04-02T11:54:40.985Z,11.11
2023-04-02T11:57:23.133Z,11.02
2023-04-02T12:00:18.821Z,11.11
2023-04-02T12:03:01.941Z,11.04
2023-04-02T12:05:34.721Z,11.16
2023-04-02T12:08:19.760Z,11.06
2023-04-02T12:10:56.659Z,11.15
2023-04-02T12:13:53.805Z,11.16
2023-04-02T12:16:22.790Z,11.21
2023-04-02T12:18:52.561Z,11.31
2023-04-02T12:21:22.608Z,11.36
2023-04-02T12:23:53.636Z,11.37
2023-04-02T12:26:33.968Z,11.44
2023-04-02T12:29:25.257Z,11.49
2023-04-02T12:31:53.905Z,11.55
2023-04-02T12:34:23.355Z,11.72
2023-04-02T12:36:58.799Z,11.83
2023-04-02T12:39:28.301Z,11.69
2023-04-02T12:41:56.672Z,11.59
2023-04-02T12:44:27.848Z,11.63
2023-04-02T12:46:56.780Z,11.64
2023-04-02T12:49:33.360Z,11.69
2023-04-02T12:52:03.706Z,11.73
2023-04-02T12:54:36.865Z,11.73
2023-04-02T12:57:34.230Z,11.84
2023-04-02T13:00:32.181Z,11.85
2023-04-02T13:03:08.426Z,11.86
2023-04-02T13:05:40.250Z,11.86
2023-04-02T13:08:17.837Z,11.92
2023-04-02T13:10:52.010Z,11.91
2023-04-02T13:13:26.684Z,12.00
2023-04-02T13:16:04.434Z,12.07
2023-04-02T13:18:35.227Z,12.13
2023-04-02T13:21:04.724Z,12.23
2023-04-02T13:23:35.007Z,12.22
2023-04-02T13:26:12.087Z,12.02
2023-04-02T13:28:39.816Z,11.78
2023-04-02T13:31:14.949Z,11.66
2023-04-02T13:33:45.310Z,11.60
2023-04-02T13:36:15.873Z,11.42
2023-04-02T13:38:43.963Z,11.36
2023-04-02T13:41:20.380Z,11.21
2023-04-02T13:43:49.400Z,11.21
2023-04-02T13:46:21.260Z,11.09
2023-04-02T13:48:50.543Z,11.03
2023-04-02T13:51:19.448Z,11.08
2023-04-02T13:53:49.918Z,11.07
2023-04-02T13:56:17.713Z,11.21
2023-04-02T13:58:45.727Z,11.26
2023-04-02T14:01:15.597Z,11.19
2023-04-02T14:03:46.837Z,11.48
2023-04-02T14:06:22.086Z,11.45
2023-04-02T14:08:59.167Z,11.36
2023-04-02T14:11:36.151Z,11.53
2023-04-02T14:14:34.559Z,11.21
2023-04-02T14:17:13.555Z,11.25
2023-04-02T14:20:05.492Z,11.08
2023-04-02T14:22:46.628Z,11.00
2023-04-02T14:25:22.144Z,10.91
2023-04-02T14:27:58.575Z,10.78
2023-04-02T14:30:38.630Z,10.64
2023-04-02T14:33:14.777Z,10.62
2023-04-02T14:35:47.162Z,10.64
2023-04-02T14:38:24.994Z,10.60
2023-04-02T14:40:59.861Z,10.63
2023-04-02T14:43:32.621Z,10.61
2023-04-02T14:46:02.316Z,10.50
2023-04-02T14:48:48.558Z,10.56
2023-04-02T14:51:25.353Z,10.51
2023-04-02T14:54:01.011Z,10.47
2023-04-02T14:56:33.608Z,10.39
2023-04-02T14:59:07.433Z,10.36
2023-04-02T15:01:40.891Z,10.38
2023-04-02T15:04:14.802Z,10.35
2023-04-02T15:06:49.371Z,10.31
2023-04-02T15:09:23.932Z,10.34
2023-04-02T15:11:55.444Z,10.21
2023-04-02T15:14:27.463Z,10.27
2023-04-02T15:16:57.680Z,10.22
2023-04-02T15:19:25.737Z,10.21
2023-04-02T15:22:14.412Z,10.05
2023-04-02T15:24:52.667Z,10.17
2023-04-02T15:27:35.711Z,10.10
2023-04-02T15:30:07.314Z,10.13
2023-04-02T15:32:40.212Z,10.17
2023-04-02T15:35:22.083Z,10.10
2023-04-02T15:37:59.616Z,10.13
2023-04-02T15:40:51.306Z,10.02
2023-04-02T15:43:25.271Z,10.08
2023-04-02T15:46:05.662Z,10.12
2023-04-02T15:48:49.932Z,10.13
2023-04-02T15:51:36.428Z,10.12
2023-04-02T15:54:19.729Z,10.05
2023-04-02T15:56:56.817Z,10.09
2023-04-02T15:59:44.307Z,10.01
2023-04-02T16:02:40.555Z,9.99
2023-04-02T16:05:17.769Z,9.97
2023-04-02T16:08:07.139Z,9.97
2023-04-02T16:10:42.648Z,9.98
2023-04-02T16:13:19.217Z,9.98
2023-04-02T16:15:51.887Z,9.95
2023-04-02T16:18:30.366Z,9.94
2023-04-02T16:21:01.525Z,9.95
2023-04-02T16:23:34.298Z,9.92
2023-04-02T16:26:17.886Z,9.93
2023-04-02T16:28:56.868Z,9.95
2023-04-02T16:31:31.593Z,9.91
2023-04-02T16:34:06.662Z,9.87
2023-04-02T16:36:42.536Z,9.84
2023-04-02T16:39:22.590Z,9.81
2023-04-02T16:42:04.452Z,9.80
2023-04-02T16:44:43.591Z,9.83
2023-04-02T16:47:21.201Z,9.83
2023-04-02T16:49:57.483Z,9.87
2023-04-02T16:52:35.481Z,9.82
2023-04-02T16:55:25.768Z,9.78
2023-04-02T16:58:07.078Z,9.89
2023-04-02T17:00:41.560Z,9.86
2023-04-02T17:03:29.460Z,9.87
2023-04-02T17:06:04.777Z,9.74
2023-04-02T17:08:42.003Z,9.87
2023-04-02T17:11:22.969Z,9.85
2023-04-02T17:14:02.223Z,9.87
2023-04-02T17:16:35.350Z,9.84
2023-04-02T17:19:09.960Z,9.83
2023-04-02T17:21:41.645Z,9.83
2023-04-02T17:24:20.055Z,9.87
2023-04-02T17:26:52.758Z,9.93
2023-04-02T17:29:26.860Z,9.87
2023-04-02T17:32:01.384Z,9.88
2023-04-02T17:34:29.813Z,9.95
2023-04-02T17:37:08.874Z,9.89
2023-04-02T17:39:44.412Z,9.97
2023-04-02T17:42:18.467Z,9.99
2023-04-02T17:45:05.278Z,9.98
2023-04-02T17:47:42.452Z,9.96
2023-04-02T17:50:34.045Z,9.92
2023-04-02T17:53:13.108Z,9.90
2023-04-02T17:55:52.276Z,9.90
2023-04-02T17:58:39.022Z,9.85
2023-04-02T18:01:15.673Z,9.87
2023-04-02T18:04:04.285Z,9.83
2023-04-02T18:06:37.007Z,9.83
2023-04-02T18:09:23.938Z,9.79
2023-04-02T18:12:03.452Z,9.85
2023-04-02T18:14:47.757Z,9.86
2023-04-02T18:17:27.365Z,9.87
2023-04-02T18:20:02.856Z,9.86
2023-04-02T18:22:40.574Z,9.85
2023-04-02T18:25:37.056Z,9.79
2023-04-02T18:28:16.417Z,9.82
2023-04-02T18:30:50.056Z,9.87
2023-04-02T18:33:33.652Z,9.86
2023-04-02T18:36:10.437Z,9.84
2023-04-02T18:38:44.663Z,9.85
2023-04-02T18:41:28.530Z,9.83
2023-04-02T18:44:11.917Z,9.84
2023-04-02T18:46:45.059Z,9.81
2023-04-02T18:49:26.318Z,9.80
2023-04-02T18:51:59.626Z,9.84
2023-04-02T18:54:32.350Z,9.85
2023-04-02T18:57:02.861Z,9.82
2023-04-02T18:59:41.256Z,9.84
2023-04-02T19:02:30.243Z,9.85
2023-04-02T19:05:03.649Z,9.82
2023-04-02T19:07:37.864Z,9.77
2023-04-02T19:10:21.616Z,9.73
2023-04-02T19:12:50.462Z,9.81
2023-04-02T19:15:18.796Z,9.81
2023-04-02T19:17:54.062Z,9.84
2023-04-02T19:20:32.779Z,9.79
2023-04-02T19:23:12.281Z,9.80
2023-04-02T19:25:50.938Z,9.82
2023-04-02T19:28:29.212Z,9.78
2023-04-02T19:31:23.038Z,9.80
2023-04-02T19:33:56.905Z,9.77
2023-04-02T19:36:39.818Z,9.76
2023-04-02T19:39:49.853Z,9.71
2023-04-02T19:42:30.191Z,9.76
2023-04-02T19:44:58.198Z,9.76
2023-04-02T19:47:26.128Z,9.76
2023-04-02T19:49:54.647Z,9.77
2023-04-02T19:52:23.849Z,9.75
2023-04-02T19:54:53.094Z,9.78
2023-04-02T19:57:20.724Z,9.79
2023-04-02T19:59:50.929Z,9.75
2023-04-02T20:02:18.649Z,9.68
2023-04-02T20:04:46.202Z,9.75
2023-04-02T20:07:13.978Z,9.76
2023-04-02T20:09:43.423Z,9.69
2023-04-02T20:12:11.237Z,9.73
2023-04-02T20:14:41.722Z,9.71
2023-04-02T20:17:09.532Z,9.66
2023-04-02T20:19:37.159Z,9.78
2023-04-02T20:22:08.622Z,9.76
2023-04-02T20:24:36.394Z,9.75
2023-04-02T20:27:08.381Z,9.72
2023-04-02T20:29:37.016Z,9.74
2023-04-02T20:32:04.849Z,9.71
2023-04-02T20:34:32.616Z,9.72
2023-04-02T20:37:00.854Z,9.71
2023-04-02T20:39:28.603Z,9.70
2023-04-02T20:41:56.172Z,9.67
2023-04-02T20:44:26.858Z,9.68
2023-04-02T20:46:55.076Z,9.66
2023-04-02T20:49:22.844Z,9.70
2023-04-02T20:51:53.826Z,9.71
2023-04-02T20:54:21.515Z,9.67
2023-04-02T20:56:50.419Z,9.70
2023-04-02T20:59:18.486Z,9.68
2023-04-02T21:01:47.569Z,9.70
2023-04-02T21:04:15.235Z,9.70
2023-04-02T21:06:44.120Z,9.71
2023-04-02T21:09:15.493Z,9.71
2023-04-02T21:11:45.908Z,9.74
2023-04-02T21:14:13.700Z,9.69
2023-04-02T21:16:43.508Z,9.72
2023-04-02T21:19:13.119Z,9.73
2023-04-02T21:21:41.250Z,9.66
2023-04-02T21:24:09.925Z,9.74
2023-04-02T21:26:40.556Z,9.75
2023-04-02T21:29:08.464Z,9.76
2023-04-02T21:31:38.079Z,9.72
2023-04-02T21:34:06.909Z,9.76
2023-04-02T21:36:37.826Z,9.74
2023-04-02T21:39:07.830Z,9.73
2023-04-02T21:41:39.229Z,9.71
2023-04-02T21:44:08.748Z,9.71
2023-04-02T21:46:38.634Z,9.69
2023-04-02T21:49:06.846Z,9.66
2023-04-02T21:51:37.008Z,9.67
2023-04-02T21:54:05.497Z,9.65
2023-04-02T21:56:36.092Z,9.63
2023-04-02T21:59:04.993Z,9.61
2023-04-02T22:01:35.295Z,9.58
2023-04-02T22:04:06.459Z,9.51
2023-04-02T22:06:39.721Z,9.58
2023-04-02T22:09:10.210Z,9.56
2023-04-02T22:11:42.169Z,9.55
2023-04-02T22:14:10.809Z,9.45
2023-04-02T22:16:39.509Z,9.47
2023-04-02T22:19:09.392Z,9.51
2023-04-02T22:21:39.172Z,9.41
2023-04-02T22:24:09.176Z,9.43
2023-04-02T22:26:37.599Z,9.44
2023-04-02T22:29:05.496Z,9.47
2023-04-02T22:31:34.088Z,9.47
2023-04-02T22:34:02.939Z,9.46
2023-04-02T22:36:31.305Z,9.37
2023-04-02T22:39:04.146Z,9.41
2023-04-02T22:41:31.906Z,9.45
2023-04-02T22:44:00.932Z,9.44
2023-04-02T22:46:28.968Z,9.44
2023-04-02T22:48:56.955Z,9.32
2023-04-02T22:51:25.477Z,9.36
2023-04-02T22:53:54.680Z,9.43
2023-04-02T22:56:25.529Z,9.36
2023-04-02T22:58:53.494Z,9.39
2023-04-02T23:01:23.189Z,9.35
2023-04-02T23:03:53.322Z,9.37
2023-04-02T23:06:22.448Z,9.39
2023-04-02T23:08:50.452Z,9.33
2023-04-02T23:11:21.234Z,9.34
2023-04-02T23:13:52.207Z,9.34
2023-04-02T23:16:20.751Z,9.22
2023-04-02T23:18:49.170Z,9.34
2023-04-02T23:21:18.808Z,9.33
2023-04-02T23:23:46.968Z,9.30
2023-04-02T23:26:16.334Z,9.30
2023-04-02T23:28:44.600Z,9.31
2023-04-02T23:31:16.235Z,9.25
2023-04-02T23:33:43.861Z,9.25
2023-04-02T23:36:14.903Z,9.24
2023-04-02T23:38:45.456Z,9.21
2023-04-02T23:41:14.405Z,9.13
2023-04-02T23:43:42.864Z,9.23
2023-04-02T23:46:10.999Z,9.20
2023-04-02T23:48:40.622Z,9.18
2023-04-02T23:51:08.343Z,9.18
2023-04-02T23:53:36.084Z,9.13
2023-04-02T23:56:05.898Z,9.14
2023-04-02T23:58:33.455Z,9.15
